createdAt,value
2018-07-21T00:00:36.766Z,23.7
2018-07-21T00:10:36.003Z,23.6
2018-07-21T00:20:35.241Z,23.6
2018-07-21T00:30:34.478Z,23.4
2018-07-21T00:40:33.716Z,23.4
2018-07-21T00:50:32.954Z,23.3
2018-07-21T01:00:32.193Z,23.3
2018-07-21T01:10:31.428Z,23.3
2018-07-21T01:20:30.665Z,23.1
2018-07-21T01:30:29.916Z,23.1
2018-07-21T01:40:29.142Z,23.1
2018-07-21T01:50:28.378Z,23.1
2018-07-21T02:00:27.617Z,23
2018-07-21T02:10:26.852Z,22.9
2018-07-21T02:20:26.090Z,22.9
2018-07-21T02:30:25.332Z,22.8
2018-07-21T02:40:24.564Z,22.7
2018-07-21T02:50:23.808Z,22.6
2018-07-21T03:00:23.036Z,22.6
2018-07-21T03:10:22.273Z,22.5
2018-07-21T03:20:21.514Z,22.4
2018-07-21T03:30:20.748Z,22.4
2018-07-21T03:40:19.983Z,22.3
2018-07-21T03:50:19.223Z,22.4
2018-07-21T04:00:18.455Z,22.4
2018-07-21T04:10:17.696Z,22.4
2018-07-21T04:20:16.928Z,22.4
2018-07-21T04:30:16.214Z,22.6
2018-07-21T04:40:15.402Z,22.8
2018-07-21T04:50:14.638Z,22.9
2018-07-21T05:00:13.872Z,23.2
2018-07-21T05:10:13.108Z,23.4
2018-07-21T05:20:12.405Z,23.6
2018-07-21T05:30:11.583Z,23.8
2018-07-21T05:40:10.872Z,24.1
2018-07-21T05:50:10.111Z,24.4
2018-07-21T06:00:09.289Z,24.7
2018-07-21T06:10:08.530Z,24.9
2018-07-21T06:20:07.768Z,25.1
2018-07-21T06:30:07.003Z,25.4
2018-07-21T06:40:06.245Z,25.6
2018-07-21T06:50:05.481Z,25.8
2018-07-21T07:00:04.719Z,25.9
2018-07-21T07:10:03.972Z,25.9
2018-07-21T07:20:03.201Z,26.1
2018-07-21T07:30:02.446Z,26.2
2018-07-21T07:40:01.676Z,26.3
2018-07-21T07:50:00.952Z,26.4
2018-07-21T08:00:00.202Z,26.4
2018-07-21T08:09:59.389Z,26.6
2018-07-21T08:19:58.633Z,26.7
2018-07-21T08:29:57.868Z,26.8
2018-07-21T08:39:57.105Z,26.9
2018-07-21T08:49:56.418Z,26.9
2018-07-21T08:59:55.590Z,27
2018-07-21T09:09:54.818Z,26.9
2018-07-21T09:19:54.056Z,26.9
2018-07-21T09:29:53.296Z,26.9
2018-07-21T09:39:52.533Z,26.9
2018-07-21T09:49:51.822Z,26.8
2018-07-21T09:59:51.012Z,26.8
2018-07-21T10:09:50.252Z,26.8
2018-07-21T10:19:49.494Z,26.8
2018-07-21T10:29:48.732Z,26.8
2018-07-21T10:39:47.971Z,26.9
2018-07-21T10:49:47.213Z,26.9
2018-07-21T10:59:46.457Z,26.9
2018-07-21T11:09:45.698Z,27
2018-07-21T11:19:44.934Z,27.1
2018-07-21T11:29:44.168Z,27.1
2018-07-21T11:39:43.408Z,27.1
2018-07-21T11:49:42.651Z,27.1
2018-07-21T11:59:41.885Z,27.1
2018-07-21T12:09:41.126Z,27.1
2018-07-21T12:19:40.364Z,27.1
2018-07-21T12:29:39.600Z,27.1
2018-07-21T12:39:38.840Z,27.1
2018-07-21T12:49:38.085Z,27.1
2018-07-21T12:59:37.318Z,27.1
2018-07-21T13:09:36.584Z,27.1
2018-07-21T13:19:35.788Z,27.1
2018-07-21T13:29:35.026Z,27.1
2018-07-21T13:39:34.266Z,27
2018-07-21T13:49:33.507Z,27
2018-07-21T13:59:32.740Z,27
2018-07-21T14:09:31.983Z,27
2018-07-21T14:19:31.226Z,27
2018-07-21T14:29:30.534Z,27
2018-07-21T14:39:29.702Z,27
2018-07-21T14:49:28.941Z,26.9
2018-07-21T14:59:28.181Z,26.9
2018-07-21T15:09:27.426Z,26.9
2018-07-21T15:19:26.658Z,26.9
2018-07-21T15:29:25.944Z,26.9
2018-07-21T15:39:25.143Z,26.9
2018-07-21T15:49:24.373Z,26.9
2018-07-21T15:59:23.612Z,26.9
2018-07-21T16:09:22.856Z,26.9
2018-07-21T16:19:22.090Z,26.9
2018-07-21T16:29:21.326Z,26.9
2018-07-21T16:39:20.564Z,26.9
2018-07-21T16:49:19.808Z,26.8
2018-07-21T16:59:19.043Z,26.8
2018-07-21T17:09:18.280Z,26.8
2018-07-21T17:19:17.522Z,26.7
2018-07-21T17:29:16.810Z,26.6
2018-07-21T17:39:16.035Z,26.6
2018-07-21T17:49:15.241Z,26.5
2018-07-21T17:59:14.483Z,26.3
2018-07-21T18:09:13.727Z,26.2
2018-07-21T18:19:12.968Z,26
2018-07-21T18:29:12.207Z,25.9
2018-07-21T18:39:11.447Z,25.8
2018-07-21T18:49:10.693Z,25.6
2018-07-21T18:59:09.934Z,25.4
2018-07-21T19:09:09.174Z,25.3
2018-07-21T19:19:08.417Z,25.2
2018-07-21T19:29:07.706Z,25.1
2018-07-21T19:39:06.900Z,25
2018-07-21T19:49:06.139Z,24.9
2018-07-21T19:59:05.380Z,24.9
2018-07-21T20:09:04.623Z,24.9
2018-07-21T20:19:03.861Z,24.8
2018-07-21T20:29:03.104Z,24.6
2018-07-21T20:39:02.344Z,24.5
2018-07-21T20:49:01.585Z,24.4
2018-07-21T20:59:00.823Z,24.3
2018-07-21T21:09:00.065Z,24.2
2018-07-21T21:18:59.353Z,24.1
2018-07-21T21:28:58.547Z,24
2018-07-21T21:38:57.793Z,24
2018-07-21T21:48:57.028Z,24
2018-07-21T21:58:56.266Z,23.9
2018-07-21T22:08:55.504Z,23.9
2018-07-21T22:18:54.804Z,23.8
2018-07-21T22:28:53.980Z,23.8
2018-07-21T22:38:53.224Z,23.7
2018-07-21T22:48:52.460Z,23.6
2018-07-21T22:58:51.699Z,23.6
2018-07-21T23:08:50.936Z,23.5
2018-07-21T23:18:50.176Z,23.4
2018-07-21T23:28:49.412Z,23.4
2018-07-21T23:38:48.708Z,23.3
2018-07-21T23:48:47.892Z,23.3
2018-07-21T23:58:47.138Z,23.2
